sensor_id;sensor_type;location;lat;lon;timestamp;P1;durP1;ratioP1;P2;durP2;ratioP2
58091;SDS011;43896;48.178;11.578;2024-01-25T00:01:20;7.97;;;1.67;;
58091;SDS011;43896;48.178;11.578;2024-01-25T00:03:46;9.68;;;1.67;;
58091;SDS011;43896;48.178;11.578;2024-01-25T00:06:11;9.40;;;1.85;;
58091;SDS011;43896;48.178;11.578;2024-01-25T00:08:36;8.68;;;1.42;;
58091;SDS011;43896;48.178;11.578;2024-01-25T00:11:02;8.05;;;1.40;;
58091;SDS011;43896;48.178;11.578;2024-01-25T00:13:28;8.50;;;1.52;;
58091;SDS011;43896;48.178;11.578;2024-01-25T00:15:54;8.23;;;1.27;;
58091;SDS011;43896;48.178;11.578;2024-01-25T00:18:19;9.05;;;1.77;;
58091;SDS011;43896;48.178;11.578;2024-01-25T00:20:45;8.85;;;1.50;;
58091;SDS011;43896;48.178;11.578;2024-01-25T00:23:10;7.57;;;1.52;;
58091;SDS011;43896;48.178;11.578;2024-01-25T00:25:36;6.25;;;1.60;;
58091;SDS011;43896;48.178;11.578;2024-01-25T00:28:01;7.18;;;1.33;;
58091;SDS011;43896;48.178;11.578;2024-01-25T00:30:27;9.00;;;1.38;;
58091;SDS011;43896;48.178;11.578;2024-01-25T00:32:52;5.82;;;1.30;;
58091;SDS011;43896;48.178;11.578;2024-01-25T00:35:18;8.13;;;1.42;;
58091;SDS011;43896;48.178;11.578;2024-01-25T00:37:43;6.50;;;1.38;;
58091;SDS011;43896;48.178;11.578;2024-01-25T00:40:09;6.28;;;1.42;;
58091;SDS011;43896;48.178;11.578;2024-01-25T00:42:42;6.10;;;1.30;;
58091;SDS011;43896;48.178;11.578;2024-01-25T00:45:09;7.22;;;1.20;;
58091;SDS011;43896;48.178;11.578;2024-01-25T00:47:36;6.25;;;1.20;;
58091;SDS011;43896;48.178;11.578;2024-01-25T00:50:02;6.80;;;1.60;;
58091;SDS011;43896;48.178;11.578;2024-01-25T00:52:29;6.22;;;1.10;;
58091;SDS011;43896;48.178;11.578;2024-01-25T00:54:54;8.18;;;2.00;;
58091;SDS011;43896;48.178;11.578;2024-01-25T00:57:20;10.05;;;1.55;;
58091;SDS011;43896;48.178;11.578;2024-01-25T00:59:46;4.93;;;1.10;;
58091;SDS011;43896;48.178;11.578;2024-01-25T01:02:12;6.32;;;1.20;;
58091;SDS011;43896;48.178;11.578;2024-01-25T01:04:38;6.60;;;1.40;;
58091;SDS011;43896;48.178;11.578;2024-01-25T01:07:05;5.68;;;1.10;;
58091;SDS011;43896;48.178;11.578;2024-01-25T01:09:30;6.30;;;1.33;;
58091;SDS011;43896;48.178;11.578;2024-01-25T01:11:56;9.45;;;1.27;;
58091;SDS011;43896;48.178;11.578;2024-01-25T01:14:21;9.88;;;1.55;;
58091;SDS011;43896;48.178;11.578;2024-01-25T01:16:47;7.68;;;1.30;;
58091;SDS011;43896;48.178;11.578;2024-01-25T01:19:12;10.10;;;1.38;;
58091;SDS011;43896;48.178;11.578;2024-01-25T01:21:37;6.82;;;1.30;;
58091;SDS011;43896;48.178;11.578;2024-01-25T01:24:04;6.57;;;1.17;;
58091;SDS011;43896;48.178;11.578;2024-01-25T01:26:29;7.13;;;1.42;;
58091;SDS011;43896;48.178;11.578;2024-01-25T01:28:55;7.45;;;1.50;;
58091;SDS011;43896;48.178;11.578;2024-01-25T01:31:20;7.40;;;1.58;;
58091;SDS011;43896;48.178;11.578;2024-01-25T01:33:46;8.15;;;1.20;;
58091;SDS011;43896;48.178;11.578;2024-01-25T01:36:11;11.85;;;1.88;;
58091;SDS011;43896;48.178;11.578;2024-01-25T01:38:37;7.57;;;1.35;;
58091;SDS011;43896;48.178;11.578;2024-01-25T01:41:02;5.38;;;1.17;;
58091;SDS011;43896;48.178;11.578;2024-01-25T01:43:27;7.85;;;1.60;;
58091;SDS011;43896;48.178;11.578;2024-01-25T01:45:53;7.85;;;1.30;;
58091;SDS011;43896;48.178;11.578;2024-01-25T01:48:27;8.18;;;1.30;;
58091;SDS011;43896;48.178;11.578;2024-01-25T01:50:52;6.57;;;1.30;;
58091;SDS011;43896;48.178;11.578;2024-01-25T01:53:18;10.30;;;1.60;;
58091;SDS011;43896;48.178;11.578;2024-01-25T01:55:43;9.27;;;1.30;;
58091;SDS011;43896;48.178;11.578;2024-01-25T01:58:08;7.45;;;1.15;;
58091;SDS011;43896;48.178;11.578;2024-01-25T02:00:34;9.32;;;1.48;;
58091;SDS011;43896;48.178;11.578;2024-01-25T02:03:02;10.27;;;1.60;;
58091;SDS011;43896;48.178;11.578;2024-01-25T02:05:28;8.98;;;1.63;;
58091;SDS011;43896;48.178;11.578;2024-01-25T02:07:53;8.23;;;1.88;;
58091;SDS011;43896;48.178;11.578;2024-01-25T02:10:19;8.60;;;1.33;;
58091;SDS011;43896;48.178;11.578;2024-01-25T02:12:44;8.02;;;1.40;;
58091;SDS011;43896;48.178;11.578;2024-01-25T02:15:10;12.52;;;1.80;;
58091;SDS011;43896;48.178;11.578;2024-01-25T02:17:35;7.45;;;1.45;;
58091;SDS011;43896;48.178;11.578;2024-01-25T02:20:01;7.50;;;1.20;;
58091;SDS011;43896;48.178;11.578;2024-01-25T02:22:28;6.82;;;1.48;;
58091;SDS011;43896;48.178;11.578;2024-01-25T02:24:53;7.78;;;1.50;;
58091;SDS011;43896;48.178;11.578;2024-01-25T02:27:19;7.57;;;1.30;;
58091;SDS011;43896;48.178;11.578;2024-01-25T02:29:44;8.20;;;1.38;;
58091;SDS011;43896;48.178;11.578;2024-01-25T02:32:10;9.70;;;1.30;;
58091;SDS011;43896;48.178;11.578;2024-01-25T02:34:35;8.77;;;1.33;;
58091;SDS011;43896;48.178;11.578;2024-01-25T02:37:00;5.80;;;0.98;;
58091;SDS011;43896;48.178;11.578;2024-01-25T02:39:26;10.10;;;1.40;;
58091;SDS011;43896;48.178;11.578;2024-01-25T02:41:51;7.25;;;1.63;;
58091;SDS011;43896;48.178;11.578;2024-01-25T02:44:16;8.35;;;1.33;;
58091;SDS011;43896;48.178;11.578;2024-01-25T02:46:42;8.82;;;1.33;;
58091;SDS011;43896;48.178;11.578;2024-01-25T02:49:09;8.63;;;1.60;;
58091;SDS011;43896;48.178;11.578;2024-01-25T02:51:35;8.07;;;1.30;;
58091;SDS011;43896;48.178;11.578;2024-01-25T02:54:00;11.90;;;1.40;;
58091;SDS011;43896;48.178;11.578;2024-01-25T02:56:26;6.10;;;1.20;;
58091;SDS011;43896;48.178;11.578;2024-01-25T02:58:51;6.22;;;1.30;;
58091;SDS011;43896;48.178;11.578;2024-01-25T03:01:16;6.88;;;1.20;;
58091;SDS011;43896;48.178;11.578;2024-01-25T03:03:42;6.75;;;1.23;;
58091;SDS011;43896;48.178;11.578;2024-01-25T03:06:07;9.25;;;1.60;;
58091;SDS011;43896;48.178;11.578;2024-01-25T03:08:34;7.85;;;1.63;;
58091;SDS011;43896;48.178;11.578;2024-01-25T03:10:59;8.45;;;1.70;;
58091;SDS011;43896;48.178;11.578;2024-01-25T03:13:25;8.10;;;1.30;;
58091;SDS011;43896;48.178;11.578;2024-01-25T03:15:50;8.55;;;1.40;;
58091;SDS011;43896;48.178;11.578;2024-01-25T03:18:16;8.02;;;1.30;;
58091;SDS011;43896;48.178;11.578;2024-01-25T03:20:41;8.60;;;1.30;;
58091;SDS011;43896;48.178;11.578;2024-01-25T03:23:06;8.93;;;1.30;;
58091;SDS011;43896;48.178;11.578;2024-01-25T03:25:32;8.88;;;1.42;;
58091;SDS011;43896;48.178;11.578;2024-01-25T03:27:57;5.55;;;1.00;;
58091;SDS011;43896;48.178;11.578;2024-01-25T03:30:22;7.82;;;1.10;;
58091;SDS011;43896;48.178;11.578;2024-01-25T03:32:48;6.70;;;1.17;;
58091;SDS011;43896;48.178;11.578;2024-01-25T03:35:13;10.23;;;1.08;;
58091;SDS011;43896;48.178;11.578;2024-01-25T03:37:38;7.88;;;1.70;;
58091;SDS011;43896;48.178;11.578;2024-01-25T03:40:04;8.10;;;1.40;;
58091;SDS011;43896;48.178;11.578;2024-01-25T03:42:30;8.82;;;1.40;;
58091;SDS011;43896;48.178;11.578;2024-01-25T03:44:55;7.45;;;1.30;;
58091;SDS011;43896;48.178;11.578;2024-01-25T03:47:21;7.40;;;1.30;;
58091;SDS011;43896;48.178;11.578;2024-01-25T03:49:46;8.90;;;1.20;;
58091;SDS011;43896;48.178;11.578;2024-01-25T03:52:11;5.70;;;1.05;;
58091;SDS011;43896;48.178;11.578;2024-01-25T03:54:37;6.72;;;1.20;;
58091;SDS011;43896;48.178;11.578;2024-01-25T03:57:02;8.27;;;1.50;;
58091;SDS011;43896;48.178;11.578;2024-01-25T03:59:28;6.72;;;1.17;;
58091;SDS011;43896;48.178;11.578;2024-01-25T04:01:53;8.20;;;1.52;;
58091;SDS011;43896;48.178;11.578;2024-01-25T04:04:19;5.90;;;1.13;;
58091;SDS011;43896;48.178;11.578;2024-01-25T04:06:44;7.50;;;1.40;;
58091;SDS011;43896;48.178;11.578;2024-01-25T04:09:12;7.22;;;1.10;;
58091;SDS011;43896;48.178;11.578;2024-01-25T04:11:38;5.72;;;1.30;;
58091;SDS011;43896;48.178;11.578;2024-01-25T04:14:05;5.32;;;0.90;;
58091;SDS011;43896;48.178;11.578;2024-01-25T04:16:32;6.22;;;0.93;;
58091;SDS011;43896;48.178;11.578;2024-01-25T04:18:58;6.78;;;1.52;;
58091;SDS011;43896;48.178;11.578;2024-01-25T04:21:24;7.07;;;1.27;;
58091;SDS011;43896;48.178;11.578;2024-01-25T04:23:49;9.15;;;1.42;;
58091;SDS011;43896;48.178;11.578;2024-01-25T04:26:15;5.85;;;0.98;;
58091;SDS011;43896;48.178;11.578;2024-01-25T04:28:41;9.35;;;1.55;;
58091;SDS011;43896;48.178;11.578;2024-01-25T04:31:07;7.65;;;1.20;;
58091;SDS011;43896;48.178;11.578;2024-01-25T04:33:32;7.50;;;1.15;;
58091;SDS011;43896;48.178;11.578;2024-01-25T04:35:58;8.57;;;1.13;;
58091;SDS011;43896;48.178;11.578;2024-01-25T04:38:23;7.75;;;1.42;;
58091;SDS011;43896;48.178;11.578;2024-01-25T04:40:48;6.90;;;1.20;;
58091;SDS011;43896;48.178;11.578;2024-01-25T04:43:14;7.95;;;1.60;;
58091;SDS011;43896;48.178;11.578;2024-01-25T04:45:39;7.32;;;1.40;;
58091;SDS011;43896;48.178;11.578;2024-01-25T04:48:05;8.43;;;1.50;;
58091;SDS011;43896;48.178;11.578;2024-01-25T04:50:31;6.03;;;0.95;;
58091;SDS011;43896;48.178;11.578;2024-01-25T04:52:56;5.82;;;1.20;;
58091;SDS011;43896;48.178;11.578;2024-01-25T04:55:22;7.35;;;1.55;;
58091;SDS011;43896;48.178;11.578;2024-01-25T04:57:47;9.48;;;1.25;;
58091;SDS011;43896;48.178;11.578;2024-01-25T05:00:15;8.57;;;1.60;;
58091;SDS011;43896;48.178;11.578;2024-01-25T05:02:41;5.55;;;1.38;;
58091;SDS011;43896;48.178;11.578;2024-01-25T05:05:07;6.07;;;1.17;;
58091;SDS011;43896;48.178;11.578;2024-01-25T05:07:32;8.18;;;1.45;;
58091;SDS011;43896;48.178;11.578;2024-01-25T05:09:57;6.57;;;0.90;;
58091;SDS011;43896;48.178;11.578;2024-01-25T05:12:23;7.88;;;1.08;;
58091;SDS011;43896;48.178;11.578;2024-01-25T05:14:48;7.63;;;1.52;;
58091;SDS011;43896;48.178;11.578;2024-01-25T05:17:14;7.80;;;1.10;;
58091;SDS011;43896;48.178;11.578;2024-01-25T05:19:39;6.70;;;1.20;;
58091;SDS011;43896;48.178;11.578;2024-01-25T05:22:04;6.55;;;1.13;;
58091;SDS011;43896;48.178;11.578;2024-01-25T05:24:32;7.78;;;1.15;;
58091;SDS011;43896;48.178;11.578;2024-01-25T05:26:58;8.90;;;1.25;;
58091;SDS011;43896;48.178;11.578;2024-01-25T05:29:24;6.63;;;1.30;;
58091;SDS011;43896;48.178;11.578;2024-01-25T05:31:50;6.32;;;1.40;;
58091;SDS011;43896;48.178;11.578;2024-01-25T05:34:15;6.05;;;1.42;;
58091;SDS011;43896;48.178;11.578;2024-01-25T05:36:40;5.80;;;1.15;;
58091;SDS011;43896;48.178;11.578;2024-01-25T05:39:06;8.52;;;1.20;;
58091;SDS011;43896;48.178;11.578;2024-01-25T05:41:32;9.32;;;1.30;;
58091;SDS011;43896;48.178;11.578;2024-01-25T05:43:58;9.30;;;1.20;;
58091;SDS011;43896;48.178;11.578;2024-01-25T05:46:24;6.57;;;1.33;;
58091;SDS011;43896;48.178;11.578;2024-01-25T05:48:49;6.97;;;1.23;;
58091;SDS011;43896;48.178;11.578;2024-01-25T05:51:15;8.55;;;1.83;;
58091;SDS011;43896;48.178;11.578;2024-01-25T05:53:40;10.05;;;1.38;;
58091;SDS011;43896;48.178;11.578;2024-01-25T05:56:06;8.25;;;1.73;;
58091;SDS011;43896;48.178;11.578;2024-01-25T05:58:31;7.80;;;1.70;;
58091;SDS011;43896;48.178;11.578;2024-01-25T06:01:24;7.78;;;1.52;;
58091;SDS011;43896;48.178;11.578;2024-01-25T06:04:13;6.53;;;1.33;;
58091;SDS011;43896;48.178;11.578;2024-01-25T06:06:38;7.22;;;1.70;;
58091;SDS011;43896;48.178;11.578;2024-01-25T06:09:03;5.30;;;1.27;;
58091;SDS011;43896;48.178;11.578;2024-01-25T06:11:30;7.72;;;1.30;;
58091;SDS011;43896;48.178;11.578;2024-01-25T06:13:56;6.72;;;1.30;;
58091;SDS011;43896;48.178;11.578;2024-01-25T06:16:22;7.03;;;1.65;;
58091;SDS011;43896;48.178;11.578;2024-01-25T06:18:47;7.05;;;1.20;;
58091;SDS011;43896;48.178;11.578;2024-01-25T06:21:12;7.47;;;1.20;;
58091;SDS011;43896;48.178;11.578;2024-01-25T06:23:38;7.55;;;1.60;;
58091;SDS011;43896;48.178;11.578;2024-01-25T06:26:04;6.38;;;1.42;;
58091;SDS011;43896;48.178;11.578;2024-01-25T06:28:29;8.95;;;1.50;;
58091;SDS011;43896;48.178;11.578;2024-01-25T06:30:55;8.35;;;2.08;;
58091;SDS011;43896;48.178;11.578;2024-01-25T06:33:23;8.63;;;1.50;;
58091;SDS011;43896;48.178;11.578;2024-01-25T06:35:54;12.20;;;2.10;;
58091;SDS011;43896;48.178;11.578;2024-01-25T06:38:20;6.95;;;1.58;;
58091;SDS011;43896;48.178;11.578;2024-01-25T06:40:45;7.95;;;1.70;;
58091;SDS011;43896;48.178;11.578;2024-01-25T06:43:10;10.27;;;1.52;;
58091;SDS011;43896;48.178;11.578;2024-01-25T06:45:36;7.40;;;1.60;;
58091;SDS011;43896;48.178;11.578;2024-01-25T06:48:05;6.68;;;1.35;;
58091;SDS011;43896;48.178;11.578;2024-01-25T06:50:31;7.75;;;1.92;;
58091;SDS011;43896;48.178;11.578;2024-01-25T06:52:56;10.65;;;1.90;;
58091;SDS011;43896;48.178;11.578;2024-01-25T06:55:21;7.25;;;1.63;;
58091;SDS011;43896;48.178;11.578;2024-01-25T06:57:47;7.38;;;1.50;;
58091;SDS011;43896;48.178;11.578;2024-01-25T07:00:12;7.82;;;1.83;;
58091;SDS011;43896;48.178;11.578;2024-01-25T07:02:40;9.13;;;1.60;;
58091;SDS011;43896;48.178;11.578;2024-01-25T07:05:07;11.40;;;1.80;;
58091;SDS011;43896;48.178;11.578;2024-01-25T07:07:33;6.65;;;1.60;;
58091;SDS011;43896;48.178;11.578;2024-01-25T07:09:58;8.25;;;1.42;;
58091;SDS011;43896;48.178;11.578;2024-01-25T07:12:24;9.10;;;1.55;;
58091;SDS011;43896;48.178;11.578;2024-01-25T07:14:49;8.85;;;1.58;;
58091;SDS011;43896;48.178;11.578;2024-01-25T07:17:14;9.32;;;1.77;;
58091;SDS011;43896;48.178;11.578;2024-01-25T07:19:40;7.90;;;1.52;;
58091;SDS011;43896;48.178;11.578;2024-01-25T07:22:05;11.70;;;2.00;;
58091;SDS011;43896;48.178;11.578;2024-01-25T07:24:31;8.13;;;1.73;;
58091;SDS011;43896;48.178;11.578;2024-01-25T07:26:56;10.00;;;2.00;;
58091;SDS011;43896;48.178;11.578;2024-01-25T07:29:22;8.13;;;1.70;;
58091;SDS011;43896;48.178;11.578;2024-01-25T07:31:48;9.98;;;1.77;;
58091;SDS011;43896;48.178;11.578;2024-01-25T07:34:13;9.85;;;1.88;;
58091;SDS011;43896;48.178;11.578;2024-01-25T07:36:38;11.95;;;2.08;;
58091;SDS011;43896;48.178;11.578;2024-01-25T07:39:04;9.40;;;1.85;;
58091;SDS011;43896;48.178;11.578;2024-01-25T07:41:30;9.13;;;1.60;;
58091;SDS011;43896;48.178;11.578;2024-01-25T07:43:55;8.50;;;1.55;;
58091;SDS011;43896;48.178;11.578;2024-01-25T07:46:21;11.45;;;1.80;;
58091;SDS011;43896;48.178;11.578;2024-01-25T07:48:49;10.63;;;1.90;;
58091;SDS011;43896;48.178;11.578;2024-01-25T07:51:14;11.32;;;1.85;;
58091;SDS011;43896;48.178;11.578;2024-01-25T07:53:40;9.55;;;1.73;;
58091;SDS011;43896;48.178;11.578;2024-01-25T07:56:08;9.02;;;2.22;;
58091;SDS011;43896;48.178;11.578;2024-01-25T07:58:35;9.82;;;2.30;;
58091;SDS011;43896;48.178;11.578;2024-01-25T08:01:02;10.15;;;1.73;;
58091;SDS011;43896;48.178;11.578;2024-01-25T08:03:31;6.35;;;1.50;;
58091;SDS011;43896;48.178;11.578;2024-01-25T08:05:57;7.30;;;1.23;;
58091;SDS011;43896;48.178;11.578;2024-01-25T08:08:22;7.82;;;1.55;;
58091;SDS011;43896;48.178;11.578;2024-01-25T08:10:48;11.80;;;1.80;;
58091;SDS011;43896;48.178;11.578;2024-01-25T08:13:14;11.23;;;1.75;;
58091;SDS011;43896;48.178;11.578;2024-01-25T08:15:39;9.20;;;2.10;;
58091;SDS011;43896;48.178;11.578;2024-01-25T08:18:05;6.95;;;1.85;;
58091;SDS011;43896;48.178;11.578;2024-01-25T08:20:31;9.77;;;2.00;;
58091;SDS011;43896;48.178;11.578;2024-01-25T08:22:56;11.65;;;2.10;;
58091;SDS011;43896;48.178;11.578;2024-01-25T08:25:22;11.02;;;1.85;;
58091;SDS011;43896;48.178;11.578;2024-01-25T08:27:48;7.03;;;1.60;;
58091;SDS011;43896;48.178;11.578;2024-01-25T08:30:14;10.80;;;2.20;;
58091;SDS011;43896;48.178;11.578;2024-01-25T08:32:39;8.45;;;1.67;;
58091;SDS011;43896;48.178;11.578;2024-01-25T08:35:05;8.05;;;1.75;;
58091;SDS011;43896;48.178;11.578;2024-01-25T08:37:31;9.77;;;1.60;;
58091;SDS011;43896;48.178;11.578;2024-01-25T08:39:56;11.07;;;1.80;;
58091;SDS011;43896;48.178;11.578;2024-01-25T08:42:21;9.70;;;1.92;;
58091;SDS011;43896;48.178;11.578;2024-01-25T08:44:47;10.35;;;2.10;;
58091;SDS011;43896;48.178;11.578;2024-01-25T08:47:17;8.90;;;1.73;;
58091;SDS011;43896;48.178;11.578;2024-01-25T08:49:43;9.23;;;1.48;;
58091;SDS011;43896;48.178;11.578;2024-01-25T08:52:09;11.35;;;1.80;;
58091;SDS011;43896;48.178;11.578;2024-01-25T08:54:34;10.05;;;1.88;;
58091;SDS011;43896;48.178;11.578;2024-01-25T08:57:02;10.02;;;1.88;;
58091;SDS011;43896;48.178;11.578;2024-01-25T08:59:28;9.57;;;1.85;;
58091;SDS011;43896;48.178;11.578;2024-01-25T09:01:54;10.35;;;1.83;;
58091;SDS011;43896;48.178;11.578;2024-01-25T09:04:20;14.95;;;2.22;;
58091;SDS011;43896;48.178;11.578;2024-01-25T09:06:45;10.07;;;1.77;;
58091;SDS011;43896;48.178;11.578;2024-01-25T09:09:10;13.35;;;2.00;;
58091;SDS011;43896;48.178;11.578;2024-01-25T09:11:37;12.02;;;1.90;;
58091;SDS011;43896;48.178;11.578;2024-01-25T09:14:02;10.18;;;1.70;;
58091;SDS011;43896;48.178;11.578;2024-01-25T09:16:28;10.98;;;2.03;;
58091;SDS011;43896;48.178;11.578;2024-01-25T09:18:53;11.40;;;1.85;;
58091;SDS011;43896;48.178;11.578;2024-01-25T09:21:18;10.80;;;2.15;;
58091;SDS011;43896;48.178;11.578;2024-01-25T09:23:44;9.75;;;1.88;;
58091;SDS011;43896;48.178;11.578;2024-01-25T09:26:09;10.43;;;2.00;;
58091;SDS011;43896;48.178;11.578;2024-01-25T09:28:35;9.73;;;1.90;;
58091;SDS011;43896;48.178;11.578;2024-01-25T09:31:00;9.80;;;1.83;;
58091;SDS011;43896;48.178;11.578;2024-01-25T09:33:25;10.48;;;1.73;;
58091;SDS011;43896;48.178;11.578;2024-01-25T09:35:51;10.35;;;1.75;;
58091;SDS011;43896;48.178;11.578;2024-01-25T09:38:16;13.25;;;2.30;;
58091;SDS011;43896;48.178;11.578;2024-01-25T09:40:42;12.73;;;1.98;;
58091;SDS011;43896;48.178;11.578;2024-01-25T09:43:07;9.05;;;2.35;;
58091;SDS011;43896;48.178;11.578;2024-01-25T09:45:33;11.80;;;1.98;;
58091;SDS011;43896;48.178;11.578;2024-01-25T09:48:00;10.93;;;2.03;;
58091;SDS011;43896;48.178;11.578;2024-01-25T09:50:29;8.50;;;2.45;;
58091;SDS011;43896;48.178;11.578;2024-01-25T09:52:58;11.10;;;2.15;;
58091;SDS011;43896;48.178;11.578;2024-01-25T09:55:25;11.77;;;2.20;;
58091;SDS011;43896;48.178;11.578;2024-01-25T09:57:54;12.65;;;2.20;;
58091;SDS011;43896;48.178;11.578;2024-01-25T10:00:21;11.55;;;1.98;;
58091;SDS011;43896;48.178;11.578;2024-01-25T10:02:48;11.30;;;2.25;;
58091;SDS011;43896;48.178;11.578;2024-01-25T10:05:15;9.80;;;2.05;;
58091;SDS011;43896;48.178;11.578;2024-01-25T10:07:41;11.95;;;1.95;;
58091;SDS011;43896;48.178;11.578;2024-01-25T10:10:08;12.60;;;2.17;;
58091;SDS011;43896;48.178;11.578;2024-01-25T10:12:34;11.90;;;1.95;;
58091;SDS011;43896;48.178;11.578;2024-01-25T10:15:00;10.95;;;1.85;;
58091;SDS011;43896;48.178;11.578;2024-01-25T10:17:27;9.77;;;1.90;;
58091;SDS011;43896;48.178;11.578;2024-01-25T10:19:53;13.77;;;2.10;;
58091;SDS011;43896;48.178;11.578;2024-01-25T10:22:18;9.85;;;1.90;;
58091;SDS011;43896;48.178;11.578;2024-01-25T10:24:44;10.60;;;2.05;;
58091;SDS011;43896;48.178;11.578;2024-01-25T10:27:09;10.48;;;1.60;;
58091;SDS011;43896;48.178;11.578;2024-01-25T10:29:36;10.30;;;2.05;;
58091;SDS011;43896;48.178;11.578;2024-01-25T10:32:04;11.70;;;2.20;;
58091;SDS011;43896;48.178;11.578;2024-01-25T10:34:31;14.27;;;2.50;;
58091;SDS011;43896;48.178;11.578;2024-01-25T10:36:59;11.10;;;2.50;;
58091;SDS011;43896;48.178;11.578;2024-01-25T10:39:26;9.30;;;2.20;;
58091;SDS011;43896;48.178;11.578;2024-01-25T10:41:54;13.70;;;2.30;;
58091;SDS011;43896;48.178;11.578;2024-01-25T10:44:21;11.65;;;2.25;;
58091;SDS011;43896;48.178;11.578;2024-01-25T10:46:47;9.77;;;2.25;;
58091;SDS011;43896;48.178;11.578;2024-01-25T10:49:12;8.75;;;1.80;;
58091;SDS011;43896;48.178;11.578;2024-01-25T10:51:38;9.38;;;2.55;;
58091;SDS011;43896;48.178;11.578;2024-01-25T10:54:06;10.18;;;2.05;;
58091;SDS011;43896;48.178;11.578;2024-01-25T10:56:34;8.35;;;2.10;;
58091;SDS011;43896;48.178;11.578;2024-01-25T10:59:00;7.75;;;1.70;;
58091;SDS011;43896;48.178;11.578;2024-01-25T11:01:26;15.43;;;1.95;;
58091;SDS011;43896;48.178;11.578;2024-01-25T11:03:52;8.90;;;1.70;;
58091;SDS011;43896;48.178;11.578;2024-01-25T11:06:20;8.05;;;1.77;;
58091;SDS011;43896;48.178;11.578;2024-01-25T11:08:46;8.95;;;2.28;;
58091;SDS011;43896;48.178;11.578;2024-01-25T11:11:12;9.55;;;2.08;;
58091;SDS011;43896;48.178;11.578;2024-01-25T11:13:39;9.75;;;1.80;;
58091;SDS011;43896;48.178;11.578;2024-01-25T11:16:13;10.65;;;1.90;;
58091;SDS011;43896;48.178;11.578;2024-01-25T11:18:49;7.95;;;1.98;;
58091;SDS011;43896;48.178;11.578;2024-01-25T11:26:44;8.60;;;1.90;;
58091;SDS011;43896;48.178;11.578;2024-01-25T11:29:13;9.25;;;1.77;;
58091;SDS011;43896;48.178;11.578;2024-01-25T11:31:43;9.15;;;2.03;;
58091;SDS011;43896;48.178;11.578;2024-01-25T11:34:10;10.65;;;1.80;;
58091;SDS011;43896;48.178;11.578;2024-01-25T11:36:36;9.45;;;2.20;;
58091;SDS011;43896;48.178;11.578;2024-01-25T11:39:03;9.88;;;1.77;;
58091;SDS011;43896;48.178;11.578;2024-01-25T11:41:28;9.50;;;1.55;;
58091;SDS011;43896;48.178;11.578;2024-01-25T11:43:56;7.90;;;1.80;;
58091;SDS011;43896;48.178;11.578;2024-01-25T11:46:21;8.13;;;1.60;;
58091;SDS011;43896;48.178;11.578;2024-01-25T11:48:47;9.35;;;1.70;;
58091;SDS011;43896;48.178;11.578;2024-01-25T11:51:12;8.95;;;1.75;;
58091;SDS011;43896;48.178;11.578;2024-01-25T11:53:38;12.65;;;1.88;;
58091;SDS011;43896;48.178;11.578;2024-01-25T11:56:05;8.85;;;1.80;;
58091;SDS011;43896;48.178;11.578;2024-01-25T11:58:33;9.18;;;1.60;;
58091;SDS011;43896;48.178;11.578;2024-01-25T12:00:59;8.32;;;1.67;;
58091;SDS011;43896;48.178;11.578;2024-01-25T12:03:25;9.02;;;1.70;;
58091;SDS011;43896;48.178;11.578;2024-01-25T12:05:51;9.10;;;1.80;;
58091;SDS011;43896;48.178;11.578;2024-01-25T12:08:16;9.13;;;1.90;;
58091;SDS011;43896;48.178;11.578;2024-01-25T12:10:42;9.52;;;1.80;;
58091;SDS011;43896;48.178;11.578;2024-01-25T12:13:08;11.18;;;1.95;;
58091;SDS011;43896;48.178;11.578;2024-01-25T12:15:34;10.63;;;2.22;;
58091;SDS011;43896;48.178;11.578;2024-01-25T12:18:00;10.20;;;1.63;;
58091;SDS011;43896;48.178;11.578;2024-01-25T12:20:26;6.78;;;1.50;;
58091;SDS011;43896;48.178;11.578;2024-01-25T12:22:53;9.10;;;1.40;;
58091;SDS011;43896;48.178;11.578;2024-01-25T12:25:18;7.68;;;1.42;;
58091;SDS011;43896;48.178;11.578;2024-01-25T12:27:43;7.90;;;1.42;;
58091;SDS011;43896;48.178;11.578;2024-01-25T12:30:11;8.77;;;1.45;;
58091;SDS011;43896;48.178;11.578;2024-01-25T12:32:37;8.57;;;2.05;;
58091;SDS011;43896;48.178;11.578;2024-01-25T12:35:03;7.28;;;1.30;;
58091;SDS011;43896;48.178;11.578;2024-01-25T12:37:32;7.50;;;1.30;;
58091;SDS011;43896;48.178;11.578;2024-01-25T12:39:58;8.55;;;1.70;;
58091;SDS011;43896;48.178;11.578;2024-01-25T12:42:23;9.15;;;1.90;;
58091;SDS011;43896;48.178;11.578;2024-01-25T12:44:51;8.70;;;1.85;;
58091;SDS011;43896;48.178;11.578;2024-01-25T12:47:18;8.40;;;1.70;;
58091;SDS011;43896;48.178;11.578;2024-01-25T12:49:43;8.45;;;1.70;;
58091;SDS011;43896;48.178;11.578;2024-01-25T12:52:09;9.18;;;1.63;;
58091;SDS011;43896;48.178;11.578;2024-01-25T12:54:36;6.72;;;1.58;;
58091;SDS011;43896;48.178;11.578;2024-01-25T12:57:02;6.88;;;1.60;;
58091;SDS011;43896;48.178;11.578;2024-01-25T12:59:28;6.70;;;1.55;;
58091;SDS011;43896;48.178;11.578;2024-01-25T13:01:53;7.43;;;1.50;;
58091;SDS011;43896;48.178;11.578;2024-01-25T13:04:19;9.30;;;1.75;;
58091;SDS011;43896;48.178;11.578;2024-01-25T13:06:45;8.73;;;2.10;;
58091;SDS011;43896;48.178;11.578;2024-01-25T13:09:11;8.13;;;1.42;;
58091;SDS011;43896;48.178;11.578;2024-01-25T13:11:36;7.93;;;1.58;;
58091;SDS011;43896;48.178;11.578;2024-01-25T13:14:05;9.88;;;1.52;;
58091;SDS011;43896;48.178;11.578;2024-01-25T13:16:30;8.25;;;1.90;;
58091;SDS011;43896;48.178;11.578;2024-01-25T13:18:57;5.90;;;1.38;;
58091;SDS011;43896;48.178;11.578;2024-01-25T13:21:22;6.50;;;1.30;;
58091;SDS011;43896;48.178;11.578;2024-01-25T13:23:48;6.85;;;1.25;;
58091;SDS011;43896;48.178;11.578;2024-01-25T13:26:13;8.43;;;1.70;;
58091;SDS011;43896;48.178;11.578;2024-01-25T13:28:39;7.65;;;1.20;;
58091;SDS011;43896;48.178;11.578;2024-01-25T13:31:04;9.30;;;1.67;;
58091;SDS011;43896;48.178;11.578;2024-01-25T13:33:29;6.70;;;1.40;;
58091;SDS011;43896;48.178;11.578;2024-01-25T13:35:55;5.93;;;1.55;;
58091;SDS011;43896;48.178;11.578;2024-01-25T13:38:20;6.85;;;1.42;;
58091;SDS011;43896;48.178;11.578;2024-01-25T13:40:46;7.10;;;1.30;;
58091;SDS011;43896;48.178;11.578;2024-01-25T13:43:11;8.23;;;1.40;;
58091;SDS011;43896;48.178;11.578;2024-01-25T13:45:37;7.10;;;1.38;;
58091;SDS011;43896;48.178;11.578;2024-01-25T13:48:02;6.60;;;1.30;;
58091;SDS011;43896;48.178;11.578;2024-01-25T13:50:28;7.30;;;1.23;;
58091;SDS011;43896;48.178;11.578;2024-01-25T13:52:53;7.88;;;1.50;;
58091;SDS011;43896;48.178;11.578;2024-01-25T13:55:20;8.55;;;1.60;;
58091;SDS011;43896;48.178;11.578;2024-01-25T13:57:45;4.78;;;1.25;;
58091;SDS011;43896;48.178;11.578;2024-01-25T14:00:11;6.47;;;1.48;;
58091;SDS011;43896;48.178;11.578;2024-01-25T14:02:37;6.15;;;1.45;;
58091;SDS011;43896;48.178;11.578;2024-01-25T14:05:03;8.45;;;1.25;;
58091;SDS011;43896;48.178;11.578;2024-01-25T14:07:29;8.80;;;1.52;;
58091;SDS011;43896;48.178;11.578;2024-01-25T14:09:54;6.15;;;1.08;;
58091;SDS011;43896;48.178;11.578;2024-01-25T14:12:20;5.35;;;1.10;;
58091;SDS011;43896;48.178;11.578;2024-01-25T14:14:45;9.05;;;1.30;;
58091;SDS011;43896;48.178;11.578;2024-01-25T14:17:11;8.30;;;1.38;;
58091;SDS011;43896;48.178;11.578;2024-01-25T14:19:36;7.20;;;1.50;;
58091;SDS011;43896;48.178;11.578;2024-01-25T14:22:02;7.85;;;1.50;;
58091;SDS011;43896;48.178;11.578;2024-01-25T14:24:27;7.43;;;1.30;;
58091;SDS011;43896;48.178;11.578;2024-01-25T14:26:53;5.45;;;1.10;;
58091;SDS011;43896;48.178;11.578;2024-01-25T14:29:18;7.07;;;1.20;;